sensor_id;sensor_type;location;lat;lon;timestamp;pressure;altitude;pressure_sealevel;temperature;humidity
54389;BME280;40975;50.390;8.640;2023-02-22T00:00:49;99076.97;;;2.72;100.00
54389;BME280;40975;50.390;8.640;2023-02-22T00:03:17;99080.06;;;2.64;100.00
54389;BME280;40975;50.390;8.640;2023-02-22T00:05:45;99082.06;;;2.61;100.00
54389;BME280;40975;50.390;8.640;2023-02-22T00:08:19;99073.38;;;2.46;100.00
54389;BME280;40975;50.390;8.640;2023-02-22T00:10:44;99074.31;;;2.45;100.00
54389;BME280;40975;50.390;8.640;2023-02-22T00:13:12;99076.19;;;2.43;100.00
54389;BME280;40975;50.390;8.640;2023-02-22T00:15:38;99073.28;;;2.47;100.00
54389;BME280;40975;50.390;8.640;2023-02-22T00:18:06;99075.59;;;2.52;100.00
54389;BME280;40975;50.390;8.640;2023-02-22T00:20:34;99081.78;;;2.51;100.00
54389;BME280;40975;50.390;8.640;2023-02-22T00:23:04;99064.13;;;2.40;100.00
54389;BME280;40975;50.390;8.640;2023-02-22T00:25:31;99059.34;;;2.32;100.00
54389;BME280;40975;50.390;8.640;2023-02-22T00:27:57;99063.66;;;2.33;100.00
54389;BME280;40975;50.390;8.640;2023-02-22T00:30:24;99034.97;;;2.17;100.00
54389;BME280;40975;50.390;8.640;2023-02-22T00:32:53;99052.63;;;2.28;100.00
54389;BME280;40975;50.390;8.640;2023-02-22T00:35:21;99059.75;;;2.26;100.00
54389;BME280;40975;50.390;8.640;2023-02-22T00:37:48;99053.00;;;2.22;100.00
54389;BME280;40975;50.390;8.640;2023-02-22T00:40:17;99056.13;;;2.14;100.00
54389;BME280;40975;50.390;8.640;2023-02-22T00:42:43;99051.06;;;2.11;100.00
54389;BME280;40975;50.390;8.640;2023-02-22T00:45:12;99054.72;;;2.09;100.00
54389;BME280;40975;50.390;8.640;2023-02-22T00:47:39;99053.38;;;2.01;100.00
54389;BME280;40975;50.390;8.640;2023-02-22T00:50:05;99060.03;;;1.93;100.00
54389;BME280;40975;50.390;8.640;2023-02-22T00:52:30;99055.09;;;1.88;100.00
54389;BME280;40975;50.390;8.640;2023-02-22T00:54:56;99056.03;;;1.87;100.00
54389;BME280;40975;50.390;8.640;2023-02-22T00:57:23;99047.50;;;1.83;100.00
54389;BME280;40975;50.390;8.640;2023-02-22T00:59:48;99046.66;;;1.83;100.00
54389;BME280;40975;50.390;8.640;2023-02-22T01:02:16;99049.19;;;1.84;100.00
54389;BME280;40975;50.390;8.640;2023-02-22T01:04:41;99050.03;;;1.85;100.00
54389;BME280;40975;50.390;8.640;2023-02-22T01:07:07;99044.78;;;1.85;100.00
54389;BME280;40975;50.390;8.640;2023-02-22T01:09:32;99046.66;;;1.83;100.00
54389;BME280;40975;50.390;8.640;2023-02-22T01:11:59;99045.81;;;1.82;100.00
54389;BME280;40975;50.390;8.640;2023-02-22T01:14:26;99040.94;;;1.76;100.00
54389;BME280;40975;50.390;8.640;2023-02-22T01:16:55;99042.72;;;1.76;100.00
54389;BME280;40975;50.390;8.640;2023-02-22T01:19:21;99043.19;;;1.68;100.00
54389;BME280;40975;50.390;8.640;2023-02-22T01:21:48;99037.13;;;1.67;100.00
54389;BME280;40975;50.390;8.640;2023-02-22T01:24:14;99041.88;;;1.61;100.00
54389;BME280;40975;50.390;8.640;2023-02-22T01:26:49;99030.38;;;1.49;100.00
54389;BME280;40975;50.390;8.640;2023-02-22T01:29:15;99033.53;;;1.39;100.00
54389;BME280;40975;50.390;8.640;2023-02-22T01:31:42;99036.06;;;1.41;100.00
54389;BME280;40975;50.390;8.640;2023-02-22T01:34:10;99030.81;;;1.41;100.00
54389;BME280;40975;50.390;8.640;2023-02-22T01:36:37;99026.03;;;1.33;100.00
54389;BME280;40975;50.390;8.640;2023-02-22T01:39:04;99027.72;;;1.34;100.00
54389;BME280;40975;50.390;8.640;2023-02-22T01:41:30;99029.78;;;1.29;100.00
54389;BME280;40975;50.390;8.640;2023-02-22T01:43:57;99019.66;;;1.23;100.00
54389;BME280;40975;50.390;8.640;2023-02-22T01:46:25;99030.22;;;1.21;100.00
54389;BME280;40975;50.390;8.640;2023-02-22T01:49:01;99024.91;;;1.23;100.00
54389;BME280;40975;50.390;8.640;2023-02-22T01:51:33;99015.09;;;1.27;100.00
54389;BME280;40975;50.390;8.640;2023-02-22T01:54:05;99014.72;;;1.18;100.00
54389;BME280;40975;50.390;8.640;2023-02-22T01:56:34;99003.59;;;1.15;100.00
54389;BME280;40975;50.390;8.640;2023-02-22T01:59:02;99002.28;;;1.07;100.00
54389;BME280;40975;50.390;8.640;2023-02-22T02:01:31;99004.53;;;1.14;100.00
54389;BME280;40975;50.390;8.640;2023-02-22T02:03:59;98990.78;;;1.10;100.00
54389;BME280;40975;50.390;8.640;2023-02-22T02:06:30;99001.94;;;1.28;100.00
54389;BME280;40975;50.390;8.640;2023-02-22T02:09:03;98998.47;;;1.28;100.00
54389;BME280;40975;50.390;8.640;2023-02-22T02:11:31;99001.84;;;1.30;100.00
54389;BME280;40975;50.390;8.640;2023-02-22T02:13:58;98988.59;;;1.33;100.00
54389;BME280;40975;50.390;8.640;2023-02-22T02:16:38;98995.03;;;1.42;100.00
54389;BME280;40975;50.390;8.640;2023-02-22T02:19:09;98989.91;;;1.40;100.00
54389;BME280;40975;50.390;8.640;2023-02-22T02:24:56;98990.94;;;1.37;100.00
54389;BME280;40975;50.390;8.640;2023-02-22T02:27:57;98986.53;;;1.23;100.00
54389;BME280;40975;50.390;8.640;2023-02-22T02:30:40;98980.94;;;1.30;100.00
54389;BME280;40975;50.390;8.640;2023-02-22T02:33:31;98976.53;;;1.30;100.00
54389;BME280;40975;50.390;8.640;2023-02-22T02:36:05;98971.31;;;1.30;100.00
54389;BME280;40975;50.390;8.640;2023-02-22T02:38:38;98968.97;;;1.26;100.00
54389;BME280;40975;50.390;8.640;2023-02-22T02:41:23;98974.00;;;1.29;100.00
54389;BME280;40975;50.390;8.640;2023-02-22T02:43:58;98966.16;;;1.29;100.00
54389;BME280;40975;50.390;8.640;2023-02-22T02:46:36;98963.72;;;1.26;100.00
54389;BME280;40975;50.390;8.640;2023-02-22T02:49:26;98964.59;;;1.26;100.00
54389;BME280;40975;50.390;8.640;2023-02-22T02:51:55;98964.41;;;1.29;100.00
54389;BME280;40975;50.390;8.640;2023-02-22T02:54:22;98960.00;;;1.30;100.00
54389;BME280;40975;50.390;8.640;2023-02-22T02:56:51;98951.72;;;1.37;100.00
54389;BME280;40975;50.390;8.640;2023-02-22T02:59:26;98944.41;;;1.43;100.00
54389;BME280;40975;50.390;8.640;2023-02-22T03:02:17;98952.00;;;1.47;100.00
54389;BME280;40975;50.390;8.640;2023-02-22T03:04:51;98955.16;;;1.38;100.00
54389;BME280;40975;50.390;8.640;2023-02-22T03:07:49;98951.16;;;1.47;100.00
54389;BME280;40975;50.390;8.640;2023-02-22T03:10:37;98957.03;;;1.50;100.00
54389;BME280;40975;50.390;8.640;2023-02-22T03:13:27;98946.69;;;1.49;100.00
54389;BME280;40975;50.390;8.640;2023-02-22T03:16:51;98952.19;;;1.44;100.00
54389;BME280;40975;50.390;8.640;2023-02-22T03:24:24;98949.38;;;1.62;100.00
54389;BME280;40975;50.390;8.640;2023-02-22T03:27:03;98950.69;;;1.69;100.00
54389;BME280;40975;50.390;8.640;2023-02-22T03:29:38;98944.16;;;1.62;100.00
54389;BME280;40975;50.390;8.640;2023-02-22T03:32:19;98946.78;;;1.62;100.00
54389;BME280;40975;50.390;8.640;2023-02-22T03:35:02;98943.28;;;1.61;100.00
54389;BME280;40975;50.390;8.640;2023-02-22T03:37:34;98940.03;;;1.58;100.00
54389;BME280;40975;50.390;8.640;2023-02-22T03:40:04;98937.03;;;1.49;100.00
54389;BME280;40975;50.390;8.640;2023-02-22T03:42:40;98936.41;;;1.46;100.00
54389;BME280;40975;50.390;8.640;2023-02-22T03:45:08;98933.69;;;1.47;100.00
54389;BME280;40975;50.390;8.640;2023-02-22T03:47:40;98934.81;;;1.43;100.00
54389;BME280;40975;50.390;8.640;2023-02-22T03:50:14;98928.56;;;1.46;100.00
54389;BME280;40975;50.390;8.640;2023-02-22T03:52:41;98935.66;;;1.44;100.00
54389;BME280;40975;50.390;8.640;2023-02-22T03:55:12;98936.84;;;1.38;100.00
54389;BME280;40975;50.390;8.640;2023-02-22T03:57:47;98935.44;;;1.32;100.00
54389;BME280;40975;50.390;8.640;2023-02-22T04:00:19;98927.06;;;1.27;100.00
54389;BME280;40975;50.390;8.640;2023-02-22T04:02:46;98923.59;;;1.27;100.00
54389;BME280;40975;50.390;8.640;2023-02-22T04:05:16;98911.53;;;1.10;100.00
54389;BME280;40975;50.390;8.640;2023-02-22T04:07:42;98924.13;;;1.17;100.00
54389;BME280;40975;50.390;8.640;2023-02-22T04:10:10;98925.81;;;1.04;100.00
54389;BME280;40975;50.390;8.640;2023-02-22T04:12:37;98931.78;;;1.06;100.00
54389;BME280;40975;50.390;8.640;2023-02-22T04:15:06;98921.78;;;0.98;100.00
54389;BME280;40975;50.390;8.640;2023-02-22T04:17:34;98920.66;;;0.88;100.00
54389;BME280;40975;50.390;8.640;2023-02-22T04:20:01;98923.38;;;1.01;100.00
54389;BME280;40975;50.390;8.640;2023-02-22T04:22:35;98924.13;;;1.03;100.00
54389;BME280;40975;50.390;8.640;2023-02-22T04:25:01;98874.22;;;0.77;100.00
54389;BME280;40975;50.390;8.640;2023-02-22T04:27:26;98922.44;;;1.16;100.00
54389;BME280;40975;50.390;8.640;2023-02-22T04:29:54;98912.56;;;1.21;100.00
54389;BME280;40975;50.390;8.640;2023-02-22T04:32:20;98923.50;;;1.28;100.00
54389;BME280;40975;50.390;8.640;2023-02-22T04:34:45;98919.75;;;1.32;100.00
54389;BME280;40975;50.390;8.640;2023-02-22T04:37:10;98916.31;;;1.32;100.00
54389;BME280;40975;50.390;8.640;2023-02-22T04:39:36;98919.00;;;1.30;100.00
54389;BME280;40975;50.390;8.640;2023-02-22T04:42:01;98914.44;;;1.19;100.00
54389;BME280;40975;50.390;8.640;2023-02-22T04:44:27;98922.19;;;1.21;100.00
54389;BME280;40975;50.390;8.640;2023-02-22T04:46:54;98920.31;;;1.23;100.00
54389;BME280;40975;50.390;8.640;2023-02-22T04:49:21;98920.50;;;1.20;100.00
54389;BME280;40975;50.390;8.640;2023-02-22T04:51:47;98916.41;;;1.16;100.00
54389;BME280;40975;50.390;8.640;2023-02-22T04:54:13;98918.72;;;1.20;100.00
54389;BME280;40975;50.390;8.640;2023-02-22T04:56:44;98915.94;;;1.23;100.00
54389;BME280;40975;50.390;8.640;2023-02-22T04:59:09;98913.50;;;1.20;100.00
54389;BME280;40975;50.390;8.640;2023-02-22T05:01:37;98915.25;;;1.20;100.00
54389;BME280;40975;50.390;8.640;2023-02-22T05:04:04;98913.41;;;1.22;100.00
54389;BME280;40975;50.390;8.640;2023-02-22T05:06:30;98915.38;;;1.18;100.00
54389;BME280;40975;50.390;8.640;2023-02-22T05:08:55;98907.16;;;1.10;100.00
54389;BME280;40975;50.390;8.640;2023-02-22T05:11:20;98911.28;;;1.14;100.00
54389;BME280;40975;50.390;8.640;2023-02-22T05:13:46;98912.84;;;1.17;100.00
54389;BME280;40975;50.390;8.640;2023-02-22T05:16:12;98906.22;;;1.26;100.00
54389;BME280;40975;50.390;8.640;2023-02-22T05:18:37;98907.81;;;1.28;100.00
54389;BME280;40975;50.390;8.640;2023-02-22T05:21:02;98899.22;;;1.26;100.00
54389;BME280;40975;50.390;8.640;2023-02-22T05:23:28;98909.28;;;1.32;100.00
54389;BME280;40975;50.390;8.640;2023-02-22T05:25:53;98907.06;;;1.26;100.00
54389;BME280;40975;50.390;8.640;2023-02-22T05:28:18;98900.88;;;1.13;100.00
54389;BME280;40975;50.390;8.640;2023-02-22T05:30:44;98894.53;;;1.02;100.00
54389;BME280;40975;50.390;8.640;2023-02-22T05:33:10;98895.72;;;0.97;100.00
54389;BME280;40975;50.390;8.640;2023-02-22T05:35:35;98898.44;;;0.95;100.00
54389;BME280;40975;50.390;8.640;2023-02-22T05:38:04;98900.13;;;0.96;100.00
54389;BME280;40975;50.390;8.640;2023-02-22T05:40:30;98895.84;;;0.95;100.00
54389;BME280;40975;50.390;8.640;2023-02-22T05:42:57;98900.34;;;0.77;100.00
54389;BME280;40975;50.390;8.640;2023-02-22T05:45:24;98901.56;;;0.71;100.00
54389;BME280;40975;50.390;8.640;2023-02-22T05:47:51;98901.38;;;0.74;100.00
54389;BME280;40975;50.390;8.640;2023-02-22T05:50:17;98905.59;;;0.77;100.00
54389;BME280;40975;50.390;8.640;2023-02-22T05:52:44;98896.16;;;0.74;100.00
54389;BME280;40975;50.390;8.640;2023-02-22T05:55:11;98900.56;;;0.74;100.00
54389;BME280;40975;50.390;8.640;2023-02-22T05:57:37;98895.34;;;0.74;100.00
54389;BME280;40975;50.390;8.640;2023-02-22T06:00:05;98901.22;;;0.77;100.00
54389;BME280;40975;50.390;8.640;2023-02-22T06:02:38;98900.41;;;0.91;100.00
54389;BME280;40975;50.390;8.640;2023-02-22T06:05:03;98904.81;;;1.05;100.00
54389;BME280;40975;50.390;8.640;2023-02-22T06:07:28;98901.09;;;1.10;100.00
54389;BME280;40975;50.390;8.640;2023-02-22T06:09:54;98902.41;;;1.17;100.00
54389;BME280;40975;50.390;8.640;2023-02-22T06:12:19;98895.19;;;1.20;100.00
54389;BME280;40975;50.390;8.640;2023-02-22T06:14:44;98899.13;;;1.28;100.00
54389;BME280;40975;50.390;8.640;2023-02-22T06:17:12;98897.81;;;1.35;100.00
54389;BME280;40975;50.390;8.640;2023-02-22T06:19:38;98896.97;;;1.20;100.00
54389;BME280;40975;50.390;8.640;2023-02-22T06:22:05;98885.69;;;1.19;100.00
54389;BME280;40975;50.390;8.640;2023-02-22T06:24:30;98898.56;;;1.22;100.00
54389;BME280;40975;50.390;8.640;2023-02-22T06:26:58;98900.59;;;1.17;100.00
54389;BME280;40975;50.390;8.640;2023-02-22T06:29:25;98884.84;;;1.19;100.00
54389;BME280;40975;50.390;8.640;2023-02-22T06:31:51;98899.13;;;1.28;100.00
54389;BME280;40975;50.390;8.640;2023-02-22T06:34:17;98902.47;;;1.15;100.00
54389;BME280;40975;50.390;8.640;2023-02-22T06:36:43;98893.25;;;1.24;100.00
54389;BME280;40975;50.390;8.640;2023-02-22T06:39:11;98905.84;;;1.32;100.00
54389;BME280;40975;50.390;8.640;2023-02-22T06:41:37;98908.09;;;1.38;100.00
54389;BME280;40975;50.390;8.640;2023-02-22T06:44:03;98911.19;;;1.45;100.00
54389;BME280;40975;50.390;8.640;2023-02-22T06:46:29;98908.47;;;1.46;100.00
54389;BME280;40975;50.390;8.640;2023-02-22T06:48:54;98914.91;;;1.55;100.00
54389;BME280;40975;50.390;8.640;2023-02-22T06:51:21;98908.81;;;1.69;100.00
54389;BME280;40975;50.390;8.640;2023-02-22T06:53:47;98913.00;;;1.71;100.00
54389;BME280;40975;50.390;8.640;2023-02-22T06:56:12;98909.19;;;1.77;100.00
54389;BME280;40975;50.390;8.640;2023-02-22T06:58:38;98914.13;;;1.82;100.00
54389;BME280;40975;50.390;8.640;2023-02-22T07:01:03;98916.44;;;1.86;100.00
54389;BME280;40975;50.390;8.640;2023-02-22T07:03:30;98911.78;;;1.92;100.00
54389;BME280;40975;50.390;8.640;2023-02-22T07:05:56;98910.84;;;1.93;100.00
54389;BME280;40975;50.390;8.640;2023-02-22T07:08:21;98916.25;;;2.04;100.00
54389;BME280;40975;50.390;8.640;2023-02-22T07:10:46;98923.13;;;2.05;100.00
54389;BME280;40975;50.390;8.640;2023-02-22T07:13:14;98923.88;;;2.07;100.00
54389;BME280;40975;50.390;8.640;2023-02-22T07:15:40;98924.41;;;1.99;100.00
54389;BME280;40975;50.390;8.640;2023-02-22T07:18:06;98924.00;;;2.06;100.00
54389;BME280;40975;50.390;8.640;2023-02-22T07:20:31;98919.06;;;2.01;100.00
54389;BME280;40975;50.390;8.640;2023-02-22T07:22:58;98921.19;;;2.09;100.00
54389;BME280;40975;50.390;8.640;2023-02-22T07:25:23;98915.56;;;2.15;100.00
54389;BME280;40975;50.390;8.640;2023-02-22T07:27:49;98922.41;;;2.30;100.00
54389;BME280;40975;50.390;8.640;2023-02-22T07:30:17;98925.69;;;2.34;100.00
54389;BME280;40975;50.390;8.640;2023-02-22T07:32:44;98924.66;;;2.37;100.00
54389;BME280;40975;50.390;8.640;2023-02-22T07:35:15;98926.34;;;2.38;100.00
54389;BME280;40975;50.390;8.640;2023-02-22T07:37:41;98921.25;;;2.49;100.00
54389;BME280;40975;50.390;8.640;2023-02-22T07:40:06;98923.56;;;2.54;100.00
54389;BME280;40975;50.390;8.640;2023-02-22T07:42:31;98925.56;;;2.63;100.00
54389;BME280;40975;50.390;8.640;2023-02-22T07:44:57;98921.34;;;2.60;100.00
54389;BME280;40975;50.390;8.640;2023-02-22T07:47:22;98923.19;;;2.73;100.00
54389;BME280;40975;50.390;8.640;2023-02-22T07:49:47;98929.34;;;2.72;100.00
54389;BME280;40975;50.390;8.640;2023-02-22T07:52:13;98926.34;;;2.78;100.00
54389;BME280;40975;50.390;8.640;2023-02-22T07:54:38;98917.94;;;2.86;100.00
54389;BME280;40975;50.390;8.640;2023-02-22T07:57:03;98920.31;;;3.03;100.00
54389;BME280;40975;50.390;8.640;2023-02-22T07:59:29;98916.19;;;3.12;100.00
54389;BME280;40975;50.390;8.640;2023-02-22T08:01:54;98921.75;;;3.20;100.00
54389;BME280;40975;50.390;8.640;2023-02-22T08:04:19;98925.44;;;3.18;100.00
54389;BME280;40975;50.390;8.640;2023-02-22T08:06:45;98924.19;;;3.36;100.00
54389;BME280;40975;50.390;8.640;2023-02-22T08:09:10;98924.78;;;3.40;100.00
54389;BME280;40975;50.390;8.640;2023-02-22T08:11:36;98913.69;;;3.49;100.00
54389;BME280;40975;50.390;8.640;2023-02-22T08:14:01;98915.56;;;3.47;100.00
54389;BME280;40975;50.390;8.640;2023-02-22T08:16:26;98912.31;;;3.56;100.00
54389;BME280;40975;50.390;8.640;2023-02-22T08:18:52;98913.75;;;3.61;100.00
54389;BME280;40975;50.390;8.640;2023-02-22T08:21:17;98917.81;;;3.78;100.00
54389;BME280;40975;50.390;8.640;2023-02-22T08:23:42;98922.72;;;3.95;100.00
54389;BME280;40975;50.390;8.640;2023-02-22T08:26:10;98916.09;;;4.02;100.00
54389;BME280;40975;50.390;8.640;2023-02-22T08:28:39;98915.44;;;4.12;100.00
54389;BME280;40975;50.390;8.640;2023-02-22T08:31:05;98918.06;;;4.12;100.00
54389;BME280;40975;50.390;8.640;2023-02-22T08:33:33;98929.13;;;4.28;100.00
54389;BME280;40975;50.390;8.640;2023-02-22T08:35:59;98911.69;;;4.51;100.00
54389;BME280;40975;50.390;8.640;2023-02-22T08:38:28;98926.47;;;4.77;100.00
54389;BME280;40975;50.390;8.640;2023-02-22T08:40:54;98924.84;;;4.87;100.00
54389;BME280;40975;50.390;8.640;2023-02-22T08:43:20;98911.59;;;4.89;100.00
54389;BME280;40975;50.390;8.640;2023-02-22T08:45:46;98922.47;;;4.95;100.00
54389;BME280;40975;50.390;8.640;2023-02-22T08:48:12;98915.81;;;5.03;100.00
54389;BME280;40975;50.390;8.640;2023-02-22T08:50:38;98915.47;;;5.07;100.00
54389;BME280;40975;50.390;8.640;2023-02-22T08:53:07;98914.97;;;5.13;100.00
54389;BME280;40975;50.390;8.640;2023-02-22T08:55:35;98911.66;;;5.34;100.00
54389;BME280;40975;50.390;8.640;2023-02-22T08:58:01;98903.41;;;5.39;100.00
54389;BME280;40975;50.390;8.640;2023-02-22T09:00:29;98906.28;;;5.58;100.00
54389;BME280;40975;50.390;8.640;2023-02-22T09:02:58;98905.19;;;5.72;100.00
54389;BME280;40975;50.390;8.640;2023-02-22T09:05:23;98905.56;;;5.68;100.00
54389;BME280;40975;50.390;8.640;2023-02-22T09:07:49;98906.66;;;5.76;100.00
54389;BME280;40975;50.390;8.640;2023-02-22T09:10:20;98901.97;;;5.91;100.00
54389;BME280;40975;50.390;8.640;2023-02-22T09:12:49;98898.59;;;5.78;100.00
54389;BME280;40975;50.390;8.640;2023-02-22T09:15:15;98898.09;;;5.96;100.00
54389;BME280;40975;50.390;8.640;2023-02-22T09:17:41;98895.25;;;6.10;100.00
54389;BME280;40975;50.390;8.640;2023-02-22T09:20:07;98896.66;;;6.14;100.00
54389;BME280;40975;50.390;8.640;2023-02-22T09:22:33;98895.66;;;6.27;100.00
54389;BME280;40975;50.390;8.640;2023-02-22T09:24:58;98890.19;;;6.51;100.00
54389;BME280;40975;50.390;8.640;2023-02-22T09:27:24;98892.25;;;6.47;100.00
54389;BME280;40975;50.390;8.640;2023-02-22T09:29:53;98888.06;;;6.45;100.00
54389;BME280;40975;50.390;8.640;2023-02-22T09:32:19;98887.25;;;6.65;100.00
54389;BME280;40975;50.390;8.640;2023-02-22T09:34:45;98887.34;;;6.96;100.00
54389;BME280;40975;50.390;8.640;2023-02-22T09:37:11;98881.06;;;7.19;100.00
54389;BME280;40975;50.390;8.640;2023-02-22T09:39:37;98884.91;;;7.14;100.00
54389;BME280;40975;50.390;8.640;2023-02-22T09:42:15;98885.00;;;7.24;100.00
54389;BME280;40975;50.390;8.640;2023-02-22T09:44:55;98879.06;;;7.32;100.00
54389;BME280;40975;50.390;8.640;2023-02-22T09:47:35;98883.47;;;7.00;100.00
54389;BME280;40975;50.390;8.640;2023-02-22T09:50:07;98874.31;;;7.05;100.00
54389;BME280;40975;50.390;8.640;2023-02-22T09:53:04;98874.13;;;7.18;100.00
54389;BME280;40975;50.390;8.640;2023-02-22T09:55:50;98867.88;;;7.19;100.00
54389;BME280;40975;50.390;8.640;2023-02-22T09:58:23;98870.50;;;7.19;100.00
54389;BME280;40975;50.390;8.640;2023-02-22T10:01:32;98875.47;;;7.33;100.00
54389;BME280;40975;50.390;8.640;2023-02-22T10:04:33;98871.66;;;7.57;100.00
54389;BME280;40975;50.390;8.640;2023-02-22T10:09:46;98868.28;;;7.45;100.00
54389;BME280;40975;50.390;8.640;2023-02-22T10:12:27;98867.53;;;7.33;100.00
54389;BME280;40975;50.390;8.640;2023-02-22T10:15:22;98859.06;;;7.39;100.00
54389;BME280;40975;50.390;8.640;2023-02-22T10:18:25;98859.09;;;7.49;100.00
54389;BME280;40975;50.390;8.640;2023-02-22T10:26:47;98861.75;;;7.49;100.00
54389;BME280;40975;50.390;8.640;2023-02-22T10:29:18;98856.91;;;7.23;100.00
54389;BME280;40975;50.390;8.640;2023-02-22T10:31:54;98860.91;;;7.18;100.00
54389;BME280;40975;50.390;8.640;2023-02-22T10:34:30;98867.72;;;7.20;100.00
54389;BME280;40975;50.390;8.640;2023-02-22T10:37:24;98859.66;;;7.43;100.00
54389;BME280;40975;50.390;8.640;2023-02-22T10:39:56;98868.03;;;7.58;100.00
54389;BME280;40975;50.390;8.640;2023-02-22T10:42:25;98866.03;;;7.81;100.00
54389;BME280;40975;50.390;8.640;2023-02-22T10:44:52;98863.06;;;7.74;100.00
54389;BME280;40975;50.390;8.640;2023-02-22T10:47:17;98865.44;;;7.68;100.00
54389;BME280;40975;50.390;8.640;2023-02-22T10:49:54;98853.41;;;8.04;100.00
54389;BME280;40975;50.390;8.640;2023-02-22T10:52:30;98859.41;;;8.06;100.00
54389;BME280;40975;50.390;8.640;2023-02-22T10:54:57;98865.53;;;8.17;100.00
54389;BME280;40975;50.390;8.640;2023-02-22T10:57:31;98854.41;;;8.03;100.00
54389;BME280;40975;50.390;8.640;2023-02-22T11:00:13;98856.31;;;7.91;100.00
54389;BME280;40975;50.390;8.640;2023-02-22T11:02:49;98850.09;;;8.02;100.00
54389;BME280;40975;50.390;8.640;2023-02-22T11:07:50;98858.03;;;8.32;100.00
54389;BME280;40975;50.390;8.640;2023-02-22T11:10:29;98857.19;;;8.41;100.00
54389;BME280;40975;50.390;8.640;2023-02-22T11:12:55;98847.47;;;8.51;100.00
54389;BME280;40975;50.390;8.640;2023-02-22T11:17:50;98851.94;;;8.51;100.00
54389;BME280;40975;50.390;8.640;2023-02-22T11:20:24;98836.88;;;8.71;100.00
54389;BME280;40975;50.390;8.640;2023-02-22T11:22:55;98829.97;;;9.17;100.00
54389;BME280;40975;50.390;8.640;2023-02-22T11:25:28;98824.34;;;9.58;100.00
54389;BME280;40975;50.390;8.640;2023-02-22T11:27:54;98823.88;;;9.91;100.00
54389;BME280;40975;50.390;8.640;2023-02-22T11:30:33;98817.75;;;10.26;100.00
54389;BME280;40975;50.390;8.640;2023-02-22T11:35:53;98817.97;;;10.33;100.00
54389;BME280;40975;50.390;8.640;2023-02-22T11:38:33;98806.31;;;10.62;100.00
54389;BME280;40975;50.390;8.640;2023-02-22T11:41:10;98794.19;;;10.41;100.00
54389;BME280;40975;50.390;8.640;2023-02-22T11:43:39;98801.22;;;10.51;100.00
54389;BME280;40975;50.390;8.640;2023-02-22T11:46:21;98788.81;;;10.33;100.00
54389;BME280;40975;50.390;8.640;2023-02-22T11:48:59;98789.63;;;10.52;100.00
54389;BME280;40975;50.390;8.640;2023-02-22T11:54:38;98772.06;;;11.46;100.00
54389;BME280;40975;50.390;8.640;2023-02-22T11:57:21;98771.91;;;11.99;100.00
54389;BME280;40975;50.390;8.640;2023-02-22T12:00:04;98772.91;;;12.31;100.00
54389;BME280;40975;50.390;8.640;2023-02-22T12:03:13;98775.06;;;12.03;100.00
54389;BME280;40975;50.390;8.640;2023-02-22T12:06:22;98776.47;;;11.72;100.00
54389;BME280;40975;50.390;8.640;2023-02-22T12:09:06;98769.00;;;11.68;100.00
54389;BME280;40975;50.390;8.640;2023-02-22T12:11:55;98772.97;;;11.80;100.00
54389;BME280;40975;50.390;8.640;2023-02-22T12:18:12;98768.75;;;12.04;100.00
54389;BME280;40975;50.390;8.640;2023-02-22T12:20:46;98757.00;;;11.63;100.00
54389;BME280;40975;50.390;8.640;2023-02-22T12:23:17;98756.84;;;11.65;100.00
54389;BME280;40975;50.390;8.640;2023-02-22T12:25:58;98755.44;;;11.44;100.00
54389;BME280;40975;50.390;8.640;2023-02-22T12:28:35;98762.09;;;11.40;100.00
54389;BME280;40975;50.390;8.640;2023-02-22T12:31:27;98755.94;;;11.48;100.00
54389;BME280;40975;50.390;8.640;2023-02-22T12:36:52;98757.50;;;11.67;100.00
54389;BME280;40975;50.390;8.640;2023-02-22T12:42:11;98748.53;;;11.60;100.00
54389;BME280;40975;50.390;8.640;2023-02-22T12:44:40;98751.03;;;11.70;100.00
54389;BME280;40975;50.390;8.640;2023-02-22T12:47:15;98748.81;;;11.40;100.00
54389;BME280;40975;50.390;8.640;2023-02-22T12:52:25;98746.53;;;11.62;100.00
54389;BME280;40975;50.390;8.640;2023-02-22T12:55:09;98750.34;;;11.59;100.00
54389;BME280;40975;50.390;8.640;2023-02-22T12:57:50;98751.19;;;11.68;100.00
54389;BME280;40975;50.390;8.640;2023-02-22T13:03:20;98737.59;;;11.71;100.00
54389;BME280;40975;50.390;8.640;2023-02-22T13:12:03;98739.41;;;11.71;100.00
54389;BME280;40975;50.390;8.640;2023-02-22T13:14:44;98734.44;;;11.84;100.00
54389;BME280;40975;50.390;8.640;2023-02-22T13:20:13;98723.81;;;11.76;100.00
54389;BME280;40975;50.390;8.640;2023-02-22T13:22:55;98728.78;;;11.71;100.00
54389;BME280;40975;50.390;8.640;2023-02-22T13:25:39;98722.25;;;11.57;100.00
54389;BME280;40975;50.390;8.640;2023-02-22T13:31:19;98711.59;;;11.40;100.00
54389;BME280;40975;50.390;8.640;2023-02-22T13:36:46;98706.00;;;11.60;100.00
54389;BME280;40975;50.390;8.640;2023-02-22T13:39:23;98698.47;;;11.39;100.00
54389;BME280;40975;50.390;8.640;2023-02-22T13:42:23;98709.28;;;11.54;100.00
54389;BME280;40975;50.390;8.640;2023-02-22T13:50:34;98693.06;;;11.90;100.00
54389;BME280;40975;50.390;8.640;2023-02-22T13:53:11;98688.94;;;11.95;100.00
54389;BME280;40975;50.390;8.640;2023-02-22T13:55:40;98687.63;;;12.24;100.00
54389;BME280;40975;50.390;8.640;2023-02-22T13:58:08;98674.66;;;12.13;100.00
54389;BME280;40975;50.390;8.640;2023-02-22T14:03:34;98687.09;;;12.37;100.00
54389;BME280;40975;50.390;8.640;2023-02-22T14:06:02;98683.63;;;12.20;100.00
54389;BME280;40975;50.390;8.640;2023-02-22T14:11:02;98680.94;;;12.20;100.00
54389;BME280;40975;50.390;8.640;2023-02-22T14:16:21;98679.06;;;12.54;100.00
54389;BME280;40975;50.390;8.640;2023-02-22T14:18:48;98682.00;;;12.75;100.00
54389;BME280;40975;50.390;8.640;2023-02-22T14:21:19;98672.56;;;12.65;98.45
54389;BME280;40975;50.390;8.640;2023-02-22T14:23:49;98677.00;;;12.81;95.52
54389;BME280;40975;50.390;8.640;2023-02-22T14:26:36;98670.09;;;13.03;96.82
54389;BME280;40975;50.390;8.640;2023-02-22T14:31:52;98675.59;;;12.93;96.82